Time;durP1;ratioP1;P1;durP2;ratioP2;P2;SDS_P1;SDS_P2;PMS_P1;PMS_P2;Temp;Humidity;BMP_temperature;BMP_pressure;BME280_temperature;BME280_humidity;BME280_pressure;Samples;Min_cycle;Max_cycle;Signal;HPM_P1;HPM_P2
2023/10/01 00:01:15;;;;;;;7.15;4.60;;;;;;;17.49;58.62;100530.50;5049367;28;20028;-72
2023/10/01 00:03:41;;;;;;;7.95;4.53;;;;;;;17.57;57.70;100519.28;5049593;28;20025;-73
2023/10/01 00:06:06;;;;;;;10.93;4.63;;;;;;;17.56;58.08;100512.31;5049385;28;20484;-71
2023/10/01 00:08:33;;;;;;;6.32;4.28;;;;;;;17.54;57.76;100519.25;5049830;28;20021;-72
2023/10/01 00:11:00;;;;;;;8.45;4.35;;;;;;;17.49;58.11;100531.38;5031773;28;20032;-75
2023/10/01 00:13:26;;;;;;;7.95;4.43;;;;;;;17.12;58.78;100455.34;5049596;28;20017;-72
2023/10/01 00:15:52;;;;;;;8.98;4.68;;;;;;;17.42;58.67;100506.97;5049768;28;20029;-72
2023/10/01 00:18:17;;;;;;;7.93;4.00;;;;;;;17.41;58.41;100522.63;5049707;28;20035;-72
2023/10/01 00:20:43;;;;;;;6.60;4.15;;;;;;;17.28;59.00;100496.41;5049650;28;20017;-72
2023/10/01 00:23:09;;;;;;;7.70;4.50;;;;;;;17.28;58.96;100513.78;5048798;28;20060;-71
2023/10/01 00:25:35;;;;;;;8.43;3.97;;;;;;;17.28;60.12;100514.66;5046379;28;20412;-75
2023/10/01 00:28:03;;;;;;;7.03;4.10;;;;;;;17.18;60.62;100514.53;5046360;28;20028;-72
2023/10/01 00:30:32;;;;;;;8.73;4.85;;;;;;;17.10;60.43;100514.47;5049200;28;20114;-76
2023/10/01 00:32:58;;;;;;;8.43;4.28;;;;;;;16.67;61.35;100433.97;5045722;28;20083;-71
2023/10/01 00:35:27;;;;;;;11.20;4.85;;;;;;;16.56;60.62;100426.06;5049060;28;20021;-72
2023/10/01 00:37:52;;;;;;;6.70;4.22;;;;;;;16.99;60.60;100490.88;5049388;28;20021;-71
2023/10/01 00:40:18;;;;;;;7.80;4.60;;;;;;;17.17;60.36;100498.03;5049541;28;20095;-70
2023/10/01 00:42:44;;;;;;;7.72;4.13;;;;;;;17.19;59.72;100493.69;5049489;28;20033;-71
2023/10/01 00:45:14;;;;;;;9.25;4.72;;;;;;;17.25;60.08;100495.50;5049499;28;20047;-73
2023/10/01 00:47:41;;;;;;;;;;;;;;;17.13;61.62;100494.50;5047374;28;20120;-72
2023/10/01 00:50:11;;;;;;;9.57;4.60;;;;;;;16.90;60.31;100464.66;5046636;28;19917;-74
2023/10/01 00:52:37;;;;;;;7.35;4.38;;;;;;;17.04;59.38;100488.31;5049613;28;20021;-74
2023/10/01 00:55:05;;;;;;;11.25;4.75;;;;;;;17.08;60.71;100493.56;5048977;28;20481;-74
2023/10/01 00:57:30;;;;;;;9.30;4.85;;;;;;;16.55;59.24;100416.50;5048418;28;20481;-72
2023/10/01 00:59:56;;;;;;;10.88;4.30;;;;;;;16.84;61.15;100477.63;5049498;28;20032;-72
2023/10/01 01:02:22;;;;;;;8.98;4.40;;;;;;;16.80;60.29;100476.72;5050120;28;20025;-73
2023/10/01 01:05:06;;;;;;;6.88;4.00;;;;;;;16.85;59.15;100471.53;5045694;28;20045;-76
2023/10/01 01:07:40;;;;;;;7.50;4.28;;;;;;;16.91;60.62;100493.41;5048557;28;20033;-73
2023/10/01 01:10:06;;;;;;;8.00;4.13;;;;;;;16.92;58.08;100474.28;5049665;28;20035;-73
2023/10/01 01:12:32;;;;;;;11.88;4.60;;;;;;;17.00;58.76;100484.78;5049742;28;20032;-72
2023/10/01 01:14:58;;;;;;;8.13;4.25;;;;;;;17.10;58.53;100491.00;5049363;28;20033;-74
2023/10/01 01:17:24;;;;;;;6.68;4.60;;;;;;;17.16;59.79;100488.44;5049692;28;20083;-74
2023/10/01 01:19:53;;;;;;;8.35;4.72;;;;;;;17.07;58.81;100457.03;5031922;28;20128;-73
2023/10/01 01:22:31;;;;;;;9.07;4.53;;;;;;;17.08;58.45;100459.66;5049874;28;20039;-72
2023/10/01 01:24:57;;;;;;;9.77;4.30;;;;;;;17.16;58.66;100483.22;5051758;28;20268;-72
2023/10/01 01:27:23;;;;;;;9.93;5.18;;;;;;;16.93;59.22;100467.31;5052946;28;20029;-74
2023/10/01 01:29:50;;;;;;;6.25;4.07;;;;;;;17.03;59.34;100482.22;5053162;28;20025;-73
2023/10/01 01:32:16;;;;;;;7.97;4.80;;;;;;;17.08;58.88;100480.53;5053437;28;20404;-73
2023/10/01 01:34:44;;;;;;;9.23;4.90;;;;;;;17.07;59.57;100481.41;5051722;28;20029;-73
2023/10/01 01:37:30;;;;;;;7.25;5.00;;;;;;;16.99;61.14;100475.22;5053017;28;20025;-72
2023/10/01 01:39:57;;;;;;;7.78;4.65;;;;;;;16.86;62.19;100478.50;5051820;28;20033;-71
2023/10/01 01:42:25;;;;;;;9.00;4.90;;;;;;;16.63;62.24;100456.53;5050758;28;20955;-73
2023/10/01 01:45:15;;;;;;;9.13;4.85;;;;;;;16.69;62.28;100465.31;5034985;28;20028;-73
2023/10/01 01:47:39;;;;;;;8.63;4.80;;;;;;;16.68;63.13;100479.19;5052684;28;20115;-75
2023/10/01 01:50:18;;;;;;;9.10;5.00;;;;;;;16.49;64.40;100481.56;5052749;28;20478;-77
2023/10/01 01:52:49;;;;;;;8.18;4.43;;;;;;;16.25;65.50;100458.66;5052906;28;20032;-73
2023/10/01 01:55:23;;;;;;;7.72;4.80;;;;;;;16.23;65.68;100476.00;5052644;28;20063;-72
2023/10/01 02:00:31;;;;;;;9.27;4.93;;;;;;;15.99;65.56;100467.84;5052792;28;20116;-72
2023/10/01 02:03:10;;;;;;;8.52;4.97;;;;;;;15.40;65.20;100374.97;5034500;28;20117;-72
2023/10/01 02:05:41;;;;;;;7.30;4.60;;;;;;;15.84;65.67;100470.25;5052508;28;20107;-71
2023/10/01 02:08:10;;;;;;;10.00;5.10;;;;;;;15.08;66.74;100385.72;5052633;28;20029;-73
2023/10/01 02:10:45;;;;;;;9.02;5.20;;;;;;;15.50;67.93;100487.84;5052169;28;20092;-73
2023/10/01 02:13:13;;;;;;;7.78;4.63;;;;;;;15.22;68.59;100456.16;5052236;28;20040;-74
2023/10/01 02:15:38;;;;;;;8.20;4.40;;;;;;;15.13;68.46;100462.09;5052169;28;20032;-72
2023/10/01 02:18:04;;;;;;;9.15;5.30;;;;;;;14.91;68.85;100458.19;5051622;28;20033;-73
2023/10/01 02:20:33;;;;;;;8.48;4.28;;;;;;;14.95;68.40;100467.81;5052403;28;20043;-72
2023/10/01 02:23:02;;;;;;;9.18;4.85;;;;;;;14.98;67.54;100473.06;5052244;28;20021;-72
2023/10/01 02:25:37;;;;;;;11.35;4.40;;;;;;;14.69;67.03;100400.63;5052037;28;20029;-71
2023/10/01 02:28:12;;;;;;;8.55;5.25;;;;;;;14.91;67.12;100454.75;5051728;28;20043;-72
2023/10/01 02:30:42;;;;;;;10.85;5.07;;;;;;;14.89;66.62;100470.28;5051996;28;20036;-73
2023/10/01 02:33:17;;;;;;;8.50;4.40;;;;;;;14.55;66.08;100443.59;5009773;28;20070;-78
2023/10/01 02:35:48;;;;;;;7.85;4.10;;;;;;;14.71;64.91;100463.03;5009882;28;20070;-72
2023/10/01 02:41:02;;;;;;;8.15;5.00;;;;;;;14.95;73.41;100475.59;5010094;28;20097;-71
2023/10/01 02:43:33;;;;;;;8.25;5.40;;;;;;;15.09;71.42;100482.78;5009667;28;20029;-72
2023/10/01 02:46:26;;;;;;;11.00;6.05;;;;;;;15.21;75.75;100472.63;5009371;28;20034;-73
2023/10/01 02:48:59;;;;;;;13.60;6.05;;;;;;;15.28;74.98;100474.50;5009164;28;20038;-71
2023/10/01 02:51:37;;;;;;;11.63;5.78;;;;;;;15.21;75.39;100462.22;5009519;28;20026;-72
2023/10/01 02:54:06;;;;;;;10.05;5.50;;;;;;;15.28;75.25;100458.88;5009658;28;20042;-73
2023/10/01 02:56:52;;;;;;;8.68;5.10;;;;;;;15.24;74.67;100472.69;5009211;28;20044;-72
2023/10/01 02:59:18;;;;;;;9.82;5.65;;;;;;;15.22;73.14;100484.78;5009196;28;20038;-73
2023/10/01 03:01:47;;;;;;;12.75;5.07;;;;;;;15.11;72.29;100450.78;5009142;28;20073;-72
2023/10/01 03:04:17;;;;;;;8.60;4.75;;;;;;;15.17;69.94;100465.63;5032905;28;20041;-74
2023/10/01 03:06:56;;;;;;;9.65;4.38;;;;;;;15.29;67.58;100483.16;5051283;28;20045;-73
2023/10/01 03:09:33;;;;;;;10.00;5.50;;;;;;;15.11;68.89;100466.38;5051548;28;20112;-73
2023/10/01 03:14:59;;;;;;;6.97;4.50;;;;;;;15.26;67.47;100486.56;5050829;28;20124;-73
2023/10/01 03:17:27;;;;;;;9.50;4.55;;;;;;;15.26;65.98;100489.19;5050301;28;20488;-73
2023/10/01 03:20:11;;;;;;;9.63;5.10;;;;;;;15.34;65.11;100492.81;5049986;28;20087;-71
2023/10/01 03:22:36;;;;;;;7.95;4.40;;;;;;;15.30;64.65;100479.72;5045711;28;20515;-71
2023/10/01 03:25:13;;;;;;;6.88;4.43;;;;;;;15.37;65.30;100490.25;5050238;28;20021;-75
2023/10/01 03:27:39;;;;;;;13.35;4.53;;;;;;;15.38;66.23;100504.16;5051691;28;20065;-72
2023/10/01 03:30:19;;;;;;;7.10;4.53;;;;;;;15.30;67.16;100497.91;5050723;28;20028;-75
2023/10/01 03:32:46;;;;;;;9.13;5.55;;;;;;;15.19;66.67;100483.00;5051318;28;20044;-72
2023/10/01 03:35:12;;;;;;;8.38;5.32;;;;;;;15.18;67.07;100485.59;5050803;28;20029;-72
2023/10/01 03:37:38;;;;;;;9.43;5.30;;;;;;;15.06;67.21;100480.16;5049621;28;20129;-72
2023/10/01 03:40:18;;;;;;;9.68;4.32;;;;;;;15.12;67.09;100508.88;5050719;28;20114;-72
2023/10/01 03:42:50;;;;;;;9.52;4.93;;;;;;;15.13;67.04;100500.22;5050686;28;20029;-73
2023/10/01 03:45:38;;;;;;;8.48;4.90;;;;;;;14.92;67.11;100448.69;5049530;28;20025;-72
2023/10/01 03:48:06;;;;;;;7.35;4.70;;;;;;;15.23;67.21;100498.66;5050700;28;20037;-72
2023/10/01 03:50:45;;;;;;;9.25;5.95;;;;;;;15.13;66.33;100489.81;5050844;28;20088;-72
2023/10/01 03:53:11;;;;;;;11.43;4.70;;;;;;;15.08;66.43;100507.94;5050419;28;20032;-72
2023/10/01 03:55:39;;;;;;;11.55;5.53;;;;;;;15.07;67.02;100510.50;5050572;28;20566;-72
2023/10/01 04:00:41;;;;;;;7.80;4.72;;;;;;;14.92;67.41;100487.69;5050709;28;20473;-71
2023/10/01 04:03:16;;;;;;;8.85;4.85;;;;;;;14.94;68.56;100505.06;5050575;28;20041;-75
2023/10/01 04:05:46;;;;;;;9.07;4.95;;;;;;;14.91;68.92;100506.72;5048833;28;20053;-72
2023/10/01 04:08:13;;;;;;;10.80;5.43;;;;;;;14.82;68.97;100502.22;5050502;28;20032;-72
2023/10/01 04:10:41;;;;;;;8.52;5.15;;;;;;;14.76;68.76;100489.09;5050173;28;20078;-74
2023/10/01 04:13:20;;;;;;;8.38;5.05;;;;;;;14.86;69.26;100517.03;5050646;28;20404;-72
2023/10/01 04:15:49;;;;;;;10.95;5.07;;;;;;;14.84;69.03;100518.72;5050079;28;20036;-72
2023/10/01 04:21:18;;;;;;;10.20;5.88;;;;;;;14.78;69.94;100524.69;5050262;28;20106;-73
2023/10/01 04:23:49;;;;;;;8.15;5.10;;;;;;;14.67;69.93;100515.78;5049959;28;20041;-70
2023/10/01 04:26:19;;;;;;;13.15;5.63;;;;;;;14.74;70.16;100520.25;5050251;28;20113;-77
2023/10/01 04:28:50;;;;;;;9.50;5.22;;;;;;;14.79;69.51;100518.63;5050116;28;20037;-72
2023/10/01 04:31:42;;;;;;;11.00;5.38;;;;;;;14.79;70.01;100529.03;5032081;28;20455;-72
2023/10/01 04:34:10;;;;;;;9.23;5.35;;;;;;;14.71;69.50;100533.19;5049894;28;20037;-74
2023/10/01 04:36:40;;;;;;;8.35;4.97;;;;;;;14.70;68.88;100532.31;5049778;28;20032;-72
2023/10/01 04:39:05;;;;;;;12.48;5.45;;;;;;;14.69;68.68;100519.28;5050245;28;20036;-73
2023/10/01 04:41:31;;;;;;;9.70;5.40;;;;;;;14.81;69.33;100542.91;5050156;28;20032;-72
2023/10/01 04:44:06;;;;;;;7.57;4.90;;;;;;;14.61;69.48;100510.44;5050178;28;20025;-72
2023/10/01 04:46:36;;;;;;;8.75;5.10;;;;;;;14.60;69.75;100514.72;5049980;28;20485;-74
2023/10/01 04:49:08;;;;;;;8.77;5.57;;;;;;;14.69;69.94;100527.97;5035416;28;20037;-74
2023/10/01 04:51:45;;;;;;;11.75;6.45;;;;;;;14.33;68.88;100468.25;5032994;28;21584;-72
2023/10/01 04:54:17;;;;;;;8.40;5.32;;;;;;;14.23;68.74;100449.88;5029869;28;20477;-73
2023/10/01 04:56:45;;;;;;;8.93;5.03;;;;;;;14.84;68.67;100544.69;5018843;28;20508;-72
2023/10/01 04:59:11;;;;;;;9.82;4.85;;;;;;;14.43;68.72;100480.63;5030870;28;20033;-71
2023/10/01 05:01:36;;;;;;;10.07;5.28;;;;;;;14.66;68.95;100545.22;5033933;28;20047;-72
2023/10/01 05:04:02;;;;;;;8.32;5.40;;;;;;;14.70;69.64;100557.41;5031900;28;20470;-72
2023/10/01 05:06:29;;;;;;;11.82;6.07;;;;;;;14.53;70.12;100547.50;5015919;28;20044;-73
2023/10/01 05:08:56;;;;;;;7.97;5.15;;;;;;;14.34;70.58;100535.84;5033845;28;20068;-72
2023/10/01 05:11:22;;;;;;;10.05;5.28;;;;;;;14.17;70.47;100530.25;5033847;28;20036;-72
2023/10/01 05:13:51;;;;;;;10.18;5.53;;;;;;;14.32;71.64;100560.88;5033635;28;20111;-73
2023/10/01 05:16:18;;;;;;;14.05;5.68;;;;;;;14.37;70.36;100561.00;5015839;28;20037;-72
2023/10/01 05:18:48;;;;;;;9.25;5.20;;;;;;;14.38;69.10;100550.63;5015762;28;20397;-72
2023/10/01 05:21:13;;;;;;;8.93;5.22;;;;;;;14.44;68.83;100549.00;5033749;28;20104;-73
2023/10/01 05:23:40;;;;;;;9.82;4.63;;;;;;;14.55;68.67;100561.41;5033294;28;20488;-74
2023/10/01 05:26:08;;;;;;;8.85;5.47;;;;;;;14.48;69.60;100548.22;5033332;28;20037;-72
2023/10/01 05:28:36;;;;;;;8.75;5.18;;;;;;;14.29;70.62;100503.66;5044350;28;20033;-72
2023/10/01 05:31:15;;;;;;;8.25;5.05;;;;;;;14.70;68.67;100547.91;5053013;28;20425;-71
2023/10/01 05:33:46;;;;;;;10.77;5.20;;;;;;;14.89;68.97;100563.88;5033347;28;20033;-70
2023/10/01 05:36:13;;;;;;;7.50;4.63;;;;;;;15.07;68.47;100565.13;5033006;28;20044;-77
2023/10/01 05:38:43;;;;;;;10.35;4.93;;;;;;;15.24;68.06;100566.31;5052120;28;20052;-72
2023/10/01 05:41:16;;;;;;;9.98;5.32;;;;;;;15.34;67.86;100557.84;5052780;28;20155;-74
2023/10/01 05:43:50;;;;;;;7.82;4.47;;;;;;;15.44;67.61;100569.28;5050062;28;20040;-71
2023/10/01 05:46:17;;;;;;;10.43;4.85;;;;;;;15.55;67.49;100568.59;5047662;28;20052;-74
2023/10/01 05:48:43;;;;;;;9.30;5.38;;;;;;;15.13;67.55;100492.44;5052245;28;20024;-73
2023/10/01 05:51:20;;;;;;;8.35;4.55;;;;;;;15.23;67.56;100489.13;5052150;28;20104;-71
2023/10/01 05:53:46;;;;;;;7.90;5.20;;;;;;;15.69;67.65;100541.13;5049942;28;20044;-71
2023/10/01 05:56:17;;;;;;;9.77;4.90;;;;;;;15.92;66.94;100562.34;5041622;28;20072;-72
2023/10/01 05:58:44;;;;;;;8.68;4.40;;;;;;;15.93;66.98;100545.88;5032786;28;20112;-72
2023/10/01 06:01:16;;;;;;;9.10;4.82;;;;;;;16.12;67.22;100569.59;5034215;28;20758;-71
2023/10/01 06:03:48;;;;;;;7.95;3.95;;;;;;;16.27;66.87;100558.53;5052435;28;20037;-73
2023/10/01 06:06:14;;;;;;;8.25;5.18;;;;;;;16.47;66.56;100567.53;5052398;28;20052;-78
2023/10/01 06:08:49;;;;;;;7.97;5.05;;;;;;;16.58;65.71;100548.56;5052435;28;20037;-73
2023/10/01 06:11:16;;;;;;;8.45;4.65;;;;;;;16.83;65.14;100568.00;5051832;28;20021;-73
2023/10/01 06:13:51;;;;;;;24.13;20.38;;;;;;;17.00;64.82;100562.16;5052364;28;20528;-72
2023/10/01 06:16:22;;;;;;;9.93;6.68;;;;;;;16.66;63.83;100493.06;5052367;28;20053;-70
2023/10/01 06:18:57;;;;;;;6.15;3.80;;;;;;;17.34;62.71;100571.25;5052588;28;20029;-72
2023/10/01 06:21:28;;;;;;;7.05;5.28;;;;;;;17.48;62.01;100560.94;5051788;28;20733;-70
2023/10/01 06:23:58;;;;;;;11.25;7.95;;;;;;;17.64;62.01;100580.25;5050100;28;20095;-72
2023/10/01 06:26:37;;;;;;;20.83;4.20;;;;;;;17.85;61.16;100573.47;5051423;28;20460;-71
2023/10/01 06:29:16;;;;;;;7.35;4.55;;;;;;;18.10;60.29;100579.81;5050761;28;20021;-73
2023/10/01 06:31:57;;;;;;;20.75;13.40;;;;;;;18.13;60.61;100585.06;5051632;28;20519;-71
2023/10/01 06:34:26;;;;;;;7.90;4.35;;;;;;;18.31;59.63;100586.94;5051802;28;20025;-71
2023/10/01 06:36:59;;;;;;;7.40;4.03;;;;;;;17.60;59.33;100445.34;5031589;28;20098;-75
2023/10/01 06:39:26;;;;;;;6.05;3.85;;;;;;;18.53;58.73;100585.34;5044193;28;20041;-74
2023/10/01 06:42:18;;;;;;;9.93;5.53;;;;;;;18.65;58.79;100575.81;5049288;28;20032;-70
2023/10/01 06:44:44;;;;;;;8.55;4.10;;;;;;;18.96;57.25;100587.31;5051538;28;20099;-70
2023/10/01 06:47:17;;;;;;;8.27;3.58;;;;;;;18.84;56.73;100551.50;5051663;28;20033;-71
2023/10/01 06:52:35;;;;;;;5.82;3.60;;;;;;;19.24;55.70;100556.03;5026059;28;20041;-72
2023/10/01 06:55:02;;;;;;;6.75;3.65;;;;;;;19.63;55.15;100584.91;5026125;28;20034;-75
2023/10/01 06:57:33;;;;;;;7.90;3.92;;;;;;;19.70;54.15;100576.16;5026406;28;20041;-71
2023/10/01 06:59:59;;;;;;;7.85;4.60;;;;;;;19.86;55.39;100593.69;5026089;28;20513;-72
2023/10/01 07:02:25;;;;;;;7.25;4.63;;;;;;;19.50;54.97;100531.63;5023581;28;20033;-72
2023/10/01 07:04:56;;;;;;;5.97;3.58;;;;;;;19.96;54.29;100583.22;5025529;28;20049;-74
2023/10/01 07:07:26;;;;;;;6.18;3.80;;;;;;;20.11;54.00;100577.97;5026097;28;20420;-74
2023/10/01 07:09:56;;;;;;;6.05;4.30;;;;;;;20.25;54.31;100579.69;5025847;28;20134;-73
2023/10/01 07:12:23;;;;;;;11.15;9.98;;;;;;;20.36;54.40;100589.31;5025844;28;20180;-71
2023/10/01 07:14:50;;;;;;;37.03;33.35;;;;;;;20.29;54.48;100574.44;5025220;28;20038;-71
2023/10/01 07:17:19;;;;;;;16.58;14.88;;;;;;;20.38;54.08;100586.66;5025511;28;20017;-73
2023/10/01 07:19:45;;;;;;;9.60;6.35;;;;;;;20.43;54.04;100587.53;5025963;28;20064;-72
2023/10/01 07:22:14;;;;;;;8.70;5.28;;;;;;;20.55;54.36;100591.00;5029367;28;20040;-74
2023/10/01 07:24:40;;;;;;;10.43;5.32;;;;;;;20.67;53.97;100586.63;5048518;28;20518;-71
2023/10/01 07:27:06;;;;;;;13.63;8.07;;;;;;;20.73;53.62;100582.25;5050995;28;20025;-70
2023/10/01 07:29:39;;;;;;;11.13;7.13;;;;;;;20.87;54.03;100585.69;5050073;28;20082;-72
2023/10/01 07:32:07;;;;;;;8.88;4.60;;;;;;;20.98;53.20;100583.03;5045772;28;20040;-72
2023/10/01 07:34:48;;;;;;;6.05;3.50;;;;;;;21.29;52.43;100577.63;5043543;28;20673;-74
2023/10/01 07:37:25;;;;;;;17.48;15.63;;;;;;;21.60;52.33;100588.84;5043954;28;20090;-71
2023/10/01 07:39:59;;;;;;;14.57;12.77;;;;;;;21.62;52.68;100557.31;5048801;28;20029;-75
2023/10/01 07:42:25;;;;;;;15.30;12.75;;;;;;;21.81;51.27;100585.19;5048687;28;20123;-73
2023/10/01 07:44:53;;;;;;;9.00;4.25;;;;;;;21.95;50.21;100582.47;5048143;28;20116;-73
2023/10/01 07:47:28;;;;;;;13.18;4.47;;;;;;;22.06;49.71;100555.22;5049601;28;20061;-73
2023/10/01 07:50:03;;;;;;;44.05;39.35;;;;;;;22.45;49.19;100580.28;5030805;28;20072;-72
2023/10/01 07:52:36;;;;;;;12.73;4.75;;;;;;;22.65;47.54;100568.66;5018124;28;20045;-73
2023/10/01 07:55:29;;;;;;;8.00;3.95;;;;;;;22.78;47.07;100562.38;5037996;28;20067;-72
2023/10/01 07:57:51;;;;;;;4.70;3.35;;;;;;;22.93;45.61;100539.38;5047223;28;20500;-73
2023/10/01 08:00:35;;;;;;;8.93;3.78;;;;;;;23.24;44.37;100567.94;5048231;28;20029;-73
2023/10/01 08:05:57;;;;;;;8.68;6.03;;;;;;;23.59;45.64;100569.22;5008021;28;20054;-73
2023/10/01 08:08:47;;;;;;;8.80;4.38;;;;;;;23.29;47.43;100507.31;4991486;28;20124;-73
2023/10/01 08:14:20;;;;;;;12.63;3.83;;;;;;;24.09;40.25;100571.06;4995588;28;20088;-74
2023/10/01 08:16:51;;;;;;;6.30;3.75;;;;;;;24.21;40.01;100563.81;4985136;28;20107;-74
2023/10/01 08:19:21;;;;;;;10.13;3.47;;;;;;;24.18;40.18;100557.72;4986706;28;20038;-76
2023/10/01 08:21:50;;;;;;;6.80;3.80;;;;;;;24.30;40.72;100539.03;4986204;28;20041;-76
2023/10/01 08:24:33;;;;;;;;;;;;;;;24.54;39.50;100564.06;4986888;28;20056;-74
2023/10/01 08:27:29;;;;;;;5.95;3.67;;;;;;;24.67;38.41;100564.75;4966598;28;20285;-72
2023/10/01 08:32:49;;;;;;;8.60;3.78;;;;;;;24.84;37.26;100558.25;4969431;28;20549;-74
2023/10/01 08:35:23;;;;;;;6.25;3.40;;;;;;;24.98;38.55;100572.00;4968954;28;20483;-74
2023/10/01 08:37:49;;;;;;;9.07;4.35;;;;;;;24.98;36.42;100563.22;4971045;28;20046;-74
2023/10/01 08:40:19;;;;;;;7.18;3.80;;;;;;;25.06;38.42;100563.94;4988427;28;20038;-76
2023/10/01 08:42:45;;;;;;;6.95;3.67;;;;;;;25.14;37.12;100558.47;4988484;28;20042;-75
2023/10/01 08:45:17;;;;;;;6.68;4.45;;;;;;;25.25;37.46;100567.03;4988931;28;20081;-75
2023/10/01 08:47:47;;;;;;;8.07;3.90;;;;;;;25.18;35.65;100534.63;4998177;28;20086;-75
2023/10/01 08:50:27;;;;;;;6.90;3.88;;;;;;;25.52;36.36;100569.97;5004999;28;20477;-75
2023/10/01 08:53:01;;;;;;;11.68;3.40;;;;;;;25.64;35.97;100572.31;4990842;28;20689;-74
2023/10/01 09:01:14;;;;;;;8.13;4.28;;;;;;;25.86;33.98;100568.28;4928628;29;20515;-74
2023/10/01 09:04:29;;;;;;;8.15;3.88;;;;;;;25.93;34.47;100578.69;4929106;29;20118;-74
2023/10/01 09:06:58;;;;;;;6.20;4.10;;;;;;;25.98;34.35;100563.56;4927785;29;20133;-74
2023/10/01 09:09:26;;;;;;;11.82;4.22;;;;;;;25.99;34.58;100560.00;4928496;29;20036;-74
2023/10/01 09:11:58;;;;;;;7.03;4.07;;;;;;;26.11;33.93;100577.38;4928867;29;20908;-76
2023/10/01 09:14:41;;;;;;;7.28;4.10;;;;;;;26.05;33.09;100558.13;4928259;29;20027;-76
2023/10/01 09:17:56;;;;;;;6.65;4.38;;;;;;;26.20;33.50;100568.31;4927737;29;20111;-76
2023/10/01 09:23:54;;;;;;;7.40;3.92;;;;;;;26.31;32.59;100553.00;4910751;29;20478;-76
2023/10/01 09:26:53;;;;;;;9.07;3.97;;;;;;;26.30;32.18;100564.50;4908677;29;20056;-75
2023/10/01 09:29:21;;;;;;;6.82;3.80;;;;;;;26.31;32.83;100550.38;4906327;29;20051;-73
2023/10/01 09:31:59;;;;;;;6.75;3.85;;;;;;;26.34;33.32;100569.72;4907819;29;20135;-76
2023/10/01 09:34:33;;;;;;;7.45;3.97;;;;;;;26.43;32.22;100561.53;4906093;29;20100;-76
2023/10/01 09:37:02;;;;;;;7.15;3.92;;;;;;;26.69;32.01;100567.88;4882851;28;20900;-75
2023/10/01 09:39:38;;;;;;;6.25;3.80;;;;;;;26.34;31.22;100493.84;4975641;28;20129;-74
2023/10/01 09:42:25;;;;;;;5.97;4.03;;;;;;;26.74;31.26;100526.28;4972248;28;20116;-73
2023/10/01 09:44:55;;;;;;;9.00;4.10;;;;;;;26.52;30.69;100484.50;4955150;28;20043;-77
2023/10/01 09:47:25;;;;;;;6.10;3.80;;;;;;;26.99;31.30;100542.28;4971417;28;20133;-75
2023/10/01 09:49:52;;;;;;;11.30;4.45;;;;;;;27.13;30.30;100544.53;4979299;28;20112;-73
2023/10/01 09:52:48;;;;;;;10.18;3.80;;;;;;;27.05;30.71;100549.19;4972156;28;20066;-73
2023/10/01 09:55:47;;;;;;;10.50;4.47;;;;;;;26.79;31.05;100503.16;4977976;28;20510;-71
2023/10/01 09:58:10;;;;;;;8.73;4.00;;;;;;;27.15;30.91;100555.94;4979204;28;20093;-73
2023/10/01 10:00:42;;;;;;;7.43;3.47;;;;;;;27.17;30.11;100550.63;4980340;28;20082;-73
2023/10/01 10:03:12;;;;;;;8.80;3.97;;;;;;;27.24;30.32;100552.13;4984446;28;20417;-75
2023/10/01 10:05:42;;;;;;;5.65;3.78;;;;;;;27.17;29.99;100543.53;5012254;28;20478;-75
2023/10/01 10:08:13;;;;;;;4.90;3.10;;;;;;;27.34;30.20;100550.97;5017513;28;20037;-72
2023/10/01 10:10:52;;;;;;;8.32;4.22;;;;;;;27.32;30.26;100557.22;5043110;28;20068;-75
2023/10/01 10:13:57;;;;;;;5.85;3.83;;;;;;;27.37;30.58;100558.78;5025786;28;20037;-74
2023/10/01 10:16:32;;;;;;;5.40;3.85;;;;;;;27.41;29.92;100559.59;5022575;28;20044;-76
2023/10/01 10:19:13;;;;;;;7.20;4.10;;;;;;;27.43;30.34;100550.69;5028168;28;20037;-72
2023/10/01 10:24:28;;;;;;;6.00;3.90;;;;;;;27.57;30.85;100541.41;5028735;28;20033;-74
2023/10/01 10:27:00;;;;;;;7.28;3.97;;;;;;;27.59;30.87;100534.25;5026438;28;20103;-75
2023/10/01 10:29:56;;;;;;;5.55;3.53;;;;;;;27.62;31.01;100539.47;5026111;28;20723;-74
2023/10/01 10:32:27;;;;;;;17.42;4.78;;;;;;;27.32;30.00;100490.94;5024481;28;20041;-74
2023/10/01 10:35:14;;;;;;;10.55;4.75;;;;;;;27.54;29.19;100544.16;5021878;28;20037;-76
2023/10/01 10:37:44;;;;;;;7.28;4.00;;;;;;;27.64;29.99;100534.13;5029653;28;20021;-75
2023/10/01 10:40:22;;;;;;;5.30;3.67;;;;;;;27.69;30.39;100529.53;5044552;28;20091;-73
2023/10/01 10:42:57;;;;;;;5.57;4.07;;;;;;;27.92;29.47;100534.06;5035958;28;20053;-79
2023/10/01 10:45:23;;;;;;;8.45;3.97;;;;;;;27.95;28.90;100538.38;5043592;28;20056;-72
2023/10/01 10:48:04;;;;;;;5.43;3.28;;;;;;;28.03;28.99;100536.34;5047203;28;20060;-72
2023/10/01 10:50:49;;;;;;;6.15;3.60;;;;;;;28.21;29.13;100534.84;5047449;28;20045;-73
2023/10/01 10:53:22;;;;;;;10.63;3.97;;;;;;;28.15;28.48;100543.03;5049198;28;20032;-75
2023/10/01 10:56:16;;;;;;;6.53;3.83;;;;;;;28.10;29.30;100540.53;5047110;28;20175;-73
2023/10/01 10:58:53;;;;;;;5.88;3.60;;;;;;;28.17;29.34;100523.47;5042340;28;20041;-76
2023/10/01 11:01:19;;;;;;;32.42;5.13;;;;;;;28.14;28.72;100528.91;5048573;28;20106;-83
2023/10/01 11:03:57;;;;;;;6.78;3.53;;;;;;;27.76;28.09;100452.38;5048287;28;20029;-80
2023/10/01 11:06:29;;;;;;;10.00;4.10;;;;;;;27.69;29.69;100457.91;5047814;28;20043;-75
2023/10/01 11:08:56;;;;;;;6.97;4.20;;;;;;;27.81;28.93;100461.94;5048600;28;20485;-80
2023/10/01 11:11:41;;;;;;;5.93;4.22;;;;;;;28.23;28.66;100519.75;5007974;28;20555;-76
2023/10/01 11:14:17;;;;;;;7.63;4.47;;;;;;;28.22;29.27;100528.63;5005433;28;20026;-73
2023/10/01 11:16:46;;;;;;;7.05;3.70;;;;;;;28.06;28.70;100486.72;4990741;28;20034;-77
2023/10/01 11:19:14;;;;;;;8.52;3.40;;;;;;;28.17;28.67;100506.69;5007617;28;20037;-79
2023/10/01 11:22:00;;;;;;;7.07;4.13;;;;;;;28.22;28.43;100516.22;4990570;28;20038;-78
2023/10/01 11:24:30;;;;;;;8.10;3.55;;;;;;;28.16;28.95;100520.88;5008338;28;20072;-79
2023/10/01 11:27:22;;;;;;;7.28;3.63;;;;;;;27.88;28.59;100480.22;5008109;28;20034;-77
2023/10/01 11:30:28;;;;;;;7.55;4.05;;;;;;;28.08;28.55;100521.16;5007393;28;20029;-75
2023/10/01 11:35:59;;;;;;;7.28;3.47;;;;;;;28.18;29.01;100511.94;4988956;28;20034;-80
2023/10/01 11:38:27;;;;;;;6.18;3.78;;;;;;;28.14;28.37;100512.97;4991335;28;20042;-79
2023/10/01 11:41:08;;;;;;;5.88;3.38;;;;;;;28.29;27.87;100500.06;5004922;28;20584;-72
2023/10/01 11:43:39;;;;;;;5.50;3.70;;;;;;;28.19;28.84;100494.25;5026528;28;20567;-80
2023/10/01 11:46:20;;;;;;;7.18;3.67;;;;;;;28.07;28.50;100464.53;5029808;28;20052;-84
2023/10/01 11:49:02;;;;;;;6.72;3.72;;;;;;;28.45;28.39;100503.91;5043104;28;20091;-83
2023/10/01 11:54:18;;;;;;;9.23;3.83;;;;;;;28.47;28.37;100507.34;5028658;28;20485;-83
2023/10/01 11:57:08;;;;;;;5.25;3.63;;;;;;;28.52;28.33;100500.06;5040021;28;20408;-78
2023/10/01 11:59:42;;;;;;;5.97;3.97;;;;;;;28.58;28.50;100502.50;5010795;28;20049;-88
2023/10/01 12:02:25;;;;;;;10.10;4.00;;;;;;;28.61;28.65;100495.34;5010531;28;20034;-79
2023/10/01 12:04:58;;;;;;;7.40;3.97;;;;;;;28.44;27.56;100496.84;5023241;28;20029;-81
2023/10/01 12:07:40;;;;;;;9.18;3.78;;;;;;;28.41;28.71;100496.97;5031122;28;20036;-86
2023/10/01 12:10:07;;;;;;;7.90;3.92;;;;;;;28.61;27.42;100493.53;5050500;28;20091;-80
2023/10/01 12:12:39;;;;;;;6.03;4.00;;;;;;;28.67;27.22;100493.34;5032345;28;20025;-81
2023/10/01 12:17:51;;;;;;;9.75;3.65;;;;;;;28.70;27.41;100471.13;5047867;28;20507;-81
2023/10/01 12:20:22;;;;;;;6.57;3.88;;;;;;;28.57;28.46;100490.16;5047209;28;20484;-81
2023/10/01 12:23:11;;;;;;;16.98;4.07;;;;;;;28.72;28.73;100486.09;5046805;28;20029;-82
2023/10/01 12:25:53;;;;;;;6.38;3.60;;;;;;;28.71;27.57;100483.47;5048457;28;20048;-84
2023/10/01 12:28:29;;;;;;;12.25;3.80;;;;;;;28.68;28.05;100465.00;5048096;28;20078;-78
2023/10/01 12:31:08;;;;;;;6.93;4.05;;;;;;;28.27;27.43;100468.25;5004364;28;20073;-80
2023/10/01 12:33:43;;;;;;;5.68;4.07;;;;;;;28.27;27.52;100484.19;5003990;28;20134;-82
2023/10/01 12:41:56;;;;;;;5.00;3.33;;;;;;;28.20;28.61;100472.06;4985270;28;20026;-84